Portada
METAR-TAF:

METAR-TAF

Aeropuertos :

Perryton Ochiltree County Airport

Perryton, Texas, Estados Unidos

latitud: 36-24N, longitud: 100-44W, altitud: 890 m

Observación

El informe se hizo hace 24 minutos, a las 06:55 UTC
Viento 19 kt del sur-sureste con ráfagas de 23 kt
Temperatura 24°C
Humedad 61%
Presión 1011 hPa
Visibilidad: 16.1 km
Cielo despejado

METAR: KPYX 070655Z AUTO 16019G23KT 10SM CLR 24/16 A2986 RMK AO2 T02400162

Hora: 02:19 (07:19 UTC)


TAF: falta

Observaciones y pronósticos meteorológicos de más de 4000 aeropuertos (mensajes METAR y TAF).

Los puntos amarillos y rojos representan las estaciones disponibles.

Ponga el ratón en el punto deseado para ver el nombre de la estación.

Haga clic para ver las observaciones y los pronósticos meteorológicos.

Para cambiar el mapa : haga clic en los botones verdes con una cruz de color negro para hacer un zoom, en el botón verde con un guión para alejar o en las flechas verdes para mapas adyacentes.


METAR-TAF: